Aviation Digital Data Service (ADDS)

Output produced by METARs form (0008 UTC 22 September 2021)
found at http://aviationweather.gov/metar/data/
 
METAR text: LEPA 220000Z 05007KT 9999 FEW030TCU 21/17 Q1019 NOSIG
Conditions at: LEPA (PALMA DE MALLORC, ES) observed 0000 UTC 22 September 2021
Temperature: 21.0°C (70°F)
Dewpoint: 17.0°C (63°F) [RH = 78%]
Pressure (altimeter): 30.09 inches Hg (1019.0 mb)
Winds: from the NE (50 degrees) at 8 MPH (7 knots; 3.6 m/s)
Visibility: 6 or more miles (10+ km)
Ceiling: at least 12,000 feet AGL
Clouds: few clouds at 3000 feet AGL
Weather: no significant weather observed at this time

METAR text: LEPA 212330Z 06006KT 9999 FEW030CB 21/17 Q1019 NOSIG
Conditions at: LEPA (PALMA DE MALLORC, ES) observed 2330 UTC 21 September 2021
Temperature: 21.0°C (70°F)
Dewpoint: 17.0°C (63°F) [RH = 78%]
Pressure (altimeter): 30.09 inches Hg (1019.0 mb)
Winds: from the ENE (60 degrees) at 7 MPH (6 knots; 3.1 m/s)
Visibility: 6 or more miles (10+ km)
Ceiling: at least 12,000 feet AGL
Clouds: few clouds at 3000 feet AGL
Weather: no significant weather observed at this time

METAR text: LEPA 212300Z 08004KT 9999 FEW035 20/16 Q1019 NOSIG
Conditions at: LEPA (PALMA DE MALLORC, ES) observed 2300 UTC 21 September 2021
Temperature: 20.0°C (68°F)
Dewpoint: 16.0°C (61°F) [RH = 78%]
Pressure (altimeter): 30.09 inches Hg (1019.0 mb)
Winds: from the E (80 degrees) at 5 MPH (4 knots; 2.1 m/s)
Visibility: 6 or more miles (10+ km)
Ceiling: at least 12,000 feet AGL
Clouds: few clouds at 3500 feet AGL
Weather: no significant weather observed at this time

METAR text: LEPA 212230Z 07005KT 9999 FEW035 20/17 Q1019 NOSIG
Conditions at: LEPA (PALMA DE MALLORC, ES) observed 2230 UTC 21 September 2021
Temperature: 20.0°C (68°F)
Dewpoint: 17.0°C (63°F) [RH = 83%]
Pressure (altimeter): 30.09 inches Hg (1019.0 mb)
Winds: from the ENE (70 degrees) at 6 MPH (5 knots; 2.6 m/s)
Visibility: 6 or more miles (10+ km)
Ceiling: at least 12,000 feet AGL
Clouds: few clouds at 3500 feet AGL
Weather: no significant weather observed at this time

Forecast for: COR
Text: TAF COR LEPA 212328Z 2200/2224 05005KT 9999 SCT030 TX27/2213Z TN19/2206Z
Forecast period: 0000 to 0600 UTC 22 September 2021
Forecast type: FROM: standard forecast or significant change
Winds: from the NE (50 degrees) at 6 MPH (5 knots; 2.6 m/s)
Visibility: 6 or more miles (10+ km)
Ceiling: at least 12,000 feet AGL
Clouds: scattered clouds at 3000 feet AGL
Weather: no significant weather forecast for this period
Text: TEMPO 2200/2205 FEW030CB
Forecast period: 0000 to 0500 UTC 22 September 2021
Forecast type: TEMPORARY: The following changes expected for less than half the time period
Visibility: missing
Ceiling: at least 12,000 feet AGL
Clouds: few clouds at 3000 feet AGL
Weather: no significant weather forecast for this period
Text: BECMG 2206/2209 07015KT
Forecast period: 0600 UTC 22 September 2021 to 0000 UTC 23 September 2021
Forecast type: BECOMING: Conditions expected to become as follows by 0900 UTC 22 September 2021
Winds: from the ENE (70 degrees) at 17 MPH (15 knots; 7.7 m/s)
Visibility: 6 or more miles (10+ km)
Ceiling: at least 12,000 feet AGL
Clouds: scattered clouds at 3000 feet AGL
Weather: no significant weather forecast for this period
Text: PROB40
Forecast period: 0900 to 1600 UTC 22 September 2021
Forecast type: TEMPORARY: The following changes expected for less than half the time period
Visibility: 2.49 miles (4.01 km)
Ceiling: at least 12,000 feet AGL
Clouds: few clouds at 3000 feet AGL
Weather: SHRA  (rain showers)
Text: TEMPO 2209/2216 4000 SHRA FEW030CB
Forecast period: 1000 to 1600 UTC 22 September 2021
Forecast type: TEMPORARY: The following changes expected for less than half the time period
Visibility: 2.49 miles (4.01 km)
Ceiling: at least 12,000 feet AGL
Clouds: few clouds at 3000 feet AGL
Weather: TSRA  (rain associated with thunderstorm(s))